Time;durP1;ratioP1;P1;durP2;ratioP2;P2;SDS_P1;SDS_P2;PMS_P1;PMS_P2;Temp;Humidity;BMP_temperature;BMP_pressure;BME280_temperature;BME280_humidity;BME280_pressure;Samples;Min_cycle;Max_cycle;Signal;HPM_P1;HPM_P2
2021/06/16 00:01:32;;;;;;;6.03;4.50;;;18.50;99.90;;;;;;5114956;28;20405;-71
2021/06/16 00:03:58;;;;;;;7.17;4.23;;;18.50;99.90;;;;;;5114875;28;20393;-71
2021/06/16 00:06:24;;;;;;;5.50;4.03;;;18.50;99.90;;;;;;5114718;28;20397;-71
2021/06/16 00:08:50;;;;;;;7.33;4.43;;;18.50;99.90;;;;;;5114743;28;20402;-71
2021/06/16 00:11:15;;;;;;;5.10;4.17;;;18.50;99.90;;;;;;5114763;28;20391;-71
2021/06/16 00:13:41;;;;;;;11.60;3.73;;;18.40;99.90;;;;;;5115001;28;20157;-71
2021/06/16 00:16:06;;;;;;;5.40;3.80;;;18.40;99.90;;;;;;5113740;28;20676;-71
2021/06/16 00:18:32;;;;;;;7.80;4.53;;;18.40;99.90;;;;;;5114665;28;20512;-71
2021/06/16 00:20:58;;;;;;;4.47;3.50;;;18.40;99.90;;;;;;5113883;28;20623;-71
2021/06/16 00:23:23;;;;;;;5.67;3.37;;;18.40;99.90;;;;;;5114609;28;20389;-71
2021/06/16 00:25:49;;;;;;;5.10;3.83;;;18.30;99.90;;;;;;5114465;28;20185;-71
2021/06/16 00:28:15;;;;;;;7.30;3.77;;;18.30;99.90;;;;;;5114658;28;20179;-71
2021/06/16 00:30:41;;;;;;;4.70;4.13;;;18.30;99.90;;;;;;5114261;28;20201;-71
2021/06/16 00:33:07;;;;;;;6.10;4.20;;;18.30;99.90;;;;;;5113567;28;20407;-71
2021/06/16 00:35:33;;;;;;;6.23;4.40;;;18.20;99.90;;;;;;5114169;28;20683;-71
2021/06/16 00:37:59;;;;;;;5.70;4.30;;;18.20;99.90;;;;;;5114253;28;20447;-71
2021/06/16 00:40:27;;;;;;;4.50;4.10;;;18.20;99.90;;;;;;5114423;28;20510;-71
2021/06/16 00:42:53;;;;;;;5.23;3.97;;;18.20;99.90;;;;;;5114338;28;20475;-71
2021/06/16 00:45:20;;;;;;;5.23;4.07;;;18.10;99.90;;;;;;5114305;28;20385;-71
2021/06/16 00:47:45;;;;;;;6.20;4.30;;;18.10;99.90;;;;;;5114077;28;20400;-71
2021/06/16 00:50:12;;;;;;;6.90;5.30;;;18.10;99.90;;;;;;5113009;28;20928;-71
2021/06/16 00:52:38;;;;;;;6.40;4.37;;;18.00;99.90;;;;;;5114055;28;20399;-71
2021/06/16 00:55:06;;;;;;;4.47;4.03;;;18.00;99.90;;;;;;5113924;28;20395;-71
2021/06/16 00:57:32;;;;;;;6.63;5.10;;;18.00;99.90;;;;;;5114208;28;20524;-71
2021/06/16 01:00:18;;;;;;;5.33;4.83;;;17.90;99.90;;;;;;5113877;28;20494;-71
2021/06/16 01:02:56;;;;;;;5.60;4.40;;;17.90;99.90;;;;;;5114379;28;20388;-71
2021/06/16 01:05:26;;;;;;;6.93;4.20;;;17.90;99.90;;;;;;5113836;28;20396;-71
2021/06/16 01:07:57;;;;;;;6.20;5.50;;;17.90;99.90;;;;;;5112854;28;20782;-71
2021/06/16 01:10:25;;;;;;;6.40;4.10;;;17.80;99.90;;;;;;5113726;28;20388;-71
2021/06/16 01:13:02;;;;;;;6.27;5.40;;;17.80;99.90;;;;;;5113867;28;20400;-71
2021/06/16 01:15:35;;;;;;;5.97;4.53;;;17.80;99.90;;;;;;5113634;28;20392;-71
2021/06/16 01:18:03;;;;;;;5.40;4.20;;;17.80;99.90;;;;;;5113526;28;20409;-71
2021/06/16 01:20:40;;;;;;;4.70;4.20;;;17.80;99.90;;;;;;5113486;28;20400;-71
2021/06/16 01:28:26;;;;;;;5.40;4.30;;;17.80;99.90;;;;;;5147228;27;20773;-70
2021/06/16 01:30:54;;;;;;;5.67;4.10;;;17.70;99.90;;;;;;5131176;28;20426;-70
2021/06/16 01:33:19;;;;;;;6.50;4.80;;;17.70;99.90;;;;;;5131179;28;20388;-70
2021/06/16 01:35:47;;;;;;;6.47;4.57;;;17.70;99.90;;;;;;5131187;28;20417;-70
2021/06/16 01:38:14;;;;;;;6.40;4.40;;;17.70;99.90;;;;;;5131209;28;20158;-70
2021/06/16 01:40:40;;;;;;;6.90;4.67;;;17.70;99.90;;;;;;5130930;28;20390;-70
2021/06/16 01:43:07;;;;;;;4.90;4.40;;;17.60;99.90;;;;;;5131036;28;20820;-70
2021/06/16 01:45:35;;;;;;;7.53;5.80;;;17.60;99.90;;;;;;5131169;28;20386;-71
2021/06/16 01:48:03;;;;;;;4.93;4.53;;;17.60;99.90;;;;;;5130857;28;21008;-70
2021/06/16 01:50:30;;;;;;;6.63;4.87;;;17.50;99.90;;;;;;5130891;28;20420;-70
2021/06/16 01:52:59;;;;;;;8.57;4.33;;;17.50;99.90;;;;;;5131157;28;20422;-70
2021/06/16 01:55:25;;;;;;;8.27;4.87;;;17.50;99.90;;;;;;5131092;28;20875;-70
2021/06/16 01:57:53;;;;;;;6.60;5.80;;;17.50;99.90;;;;;;5129900;28;20405;-70
2021/06/16 02:00:20;;;;;;;4.97;4.43;;;17.50;99.90;;;;;;5130837;28;20423;-70
2021/06/16 02:02:46;;;;;;;6.40;4.53;;;17.50;99.90;;;;;;5130661;28;20398;-71
2021/06/16 02:05:17;;;;;;;11.30;5.30;;;17.40;99.90;;;;;;5130744;28;20395;-70
2021/06/16 02:07:49;;;;;;;10.50;4.60;;;17.40;99.90;;;;;;5130525;28;20434;-70
2021/06/16 02:10:22;;;;;;;5.53;4.33;;;17.40;99.90;;;;;;5130402;28;20397;-70
2021/06/16 02:12:48;;;;;;;7.57;5.43;;;17.40;99.90;;;;;;5130292;28;20477;-71
2021/06/16 02:15:16;;;;;;;5.53;4.93;;;17.40;99.90;;;;;;5129565;27;20898;-70
2021/06/16 02:17:52;;;;;;;7.23;4.87;;;17.40;99.90;;;;;;5130362;28;20395;-70
2021/06/16 02:20:20;;;;;;;8.60;5.23;;;17.40;99.90;;;;;;5130390;28;20897;-70
2021/06/16 02:22:47;;;;;;;5.67;4.50;;;17.40;99.90;;;;;;5130332;28;20383;-70
2021/06/16 02:25:15;;;;;;;7.20;4.90;;;17.30;99.90;;;;;;5130440;28;20390;-70
2021/06/16 02:27:41;;;;;;;7.33;4.50;;;17.30;99.90;;;;;;5129940;28;20458;-70
2021/06/16 02:30:07;;;;;;;6.23;5.27;;;17.30;99.90;;;;;;5130066;28;20412;-70
2021/06/16 02:32:33;;;;;;;7.40;5.20;;;17.30;99.90;;;;;;5129286;28;20252;-70
2021/06/16 02:34:59;;;;;;;7.00;4.80;;;17.30;99.90;;;;;;5130020;28;20431;-70
2021/06/16 02:37:26;;;;;;;7.73;4.63;;;17.30;99.90;;;;;;5130131;28;20160;-70
2021/06/16 02:39:56;;;;;;;6.07;5.13;;;17.20;99.90;;;;;;5115800;28;20420;-70
2021/06/16 02:42:24;;;;;;;6.20;4.40;;;17.20;99.90;;;;;;5116575;28;20420;-70
2021/06/16 02:44:51;;;;;;;7.23;5.07;;;17.20;99.90;;;;;;5116078;28;20403;-70
2021/06/16 02:47:17;;;;;;;5.73;4.67;;;17.20;99.90;;;;;;5115998;28;20451;-70
2021/06/16 02:49:55;;;;;;;5.57;4.57;;;17.20;99.90;;;;;;5115225;28;20562;-70
2021/06/16 02:52:22;;;;;;;8.60;4.60;;;17.20;99.90;;;;;;5116532;28;20383;-70
2021/06/16 02:55:06;;;;;;;6.60;4.87;;;17.20;99.90;;;;;;5116196;28;20391;-70
2021/06/16 02:57:34;;;;;;;7.30;5.67;;;17.10;99.90;;;;;;5115913;28;20745;-70
2021/06/16 03:00:00;;;;;;;6.83;4.83;;;17.10;99.90;;;;;;5115545;28;20438;-70
2021/06/16 03:02:28;;;;;;;5.80;4.87;;;17.10;99.90;;;;;;5115802;28;20501;-70
2021/06/16 03:04:56;;;;;;;6.17;4.70;;;17.10;99.90;;;;;;5115673;28;20459;-70
2021/06/16 03:07:24;;;;;;;8.27;5.13;;;17.10;99.90;;;;;;5114936;28;20447;-70
2021/06/16 03:09:50;;;;;;;5.77;4.60;;;17.10;99.90;;;;;;5115595;28;20737;-70
2021/06/16 03:12:19;;;;;;;8.93;5.20;;;17.10;99.90;;;;;;5115621;28;20439;-70
2021/06/16 03:14:47;;;;;;;4.83;4.40;;;17.10;99.90;;;;;;5115489;28;20483;-70
2021/06/16 03:17:15;;;;;;;6.30;5.40;;;17.00;99.90;;;;;;5115553;28;20802;-70
2021/06/16 03:19:41;;;;;;;6.23;4.87;;;17.00;99.90;;;;;;5115445;28;20747;-70
2021/06/16 03:22:07;;;;;;;10.87;7.43;;;17.00;99.90;;;;;;5115642;28;20452;-70
2021/06/16 03:24:35;;;;;;;6.60;5.13;;;17.00;99.90;;;;;;5114618;28;20414;-70
2021/06/16 03:27:01;;;;;;;5.30;4.80;;;17.00;99.90;;;;;;5115101;28;20465;-70
2021/06/16 03:29:27;;;;;;;5.20;4.67;;;16.90;99.90;;;;;;5115333;28;20476;-70
2021/06/16 03:31:53;;;;;;;6.73;4.50;;;16.90;99.90;;;;;;5115189;28;20509;-70
2021/06/16 03:34:19;;;;;;;5.13;4.17;;;16.90;99.90;;;;;;5115261;28;20154;-70
2021/06/16 03:36:48;;;;;;;5.90;4.90;;;16.90;99.90;;;;;;5115304;28;20512;-70
2021/06/16 03:39:14;;;;;;;5.53;4.67;;;16.90;99.90;;;;;;5115327;28;20165;-70
2021/06/16 03:41:41;;;;;;;6.30;5.30;;;16.90;99.90;;;;;;5114183;28;20447;-70
2021/06/16 03:44:09;;;;;;;8.77;5.53;;;16.90;99.90;;;;;;5115259;28;20711;-70
2021/06/16 03:46:38;;;;;;;6.67;5.57;;;16.90;99.90;;;;;;5114958;28;20447;-70
2021/06/16 03:49:06;;;;;;;6.63;5.00;;;16.90;99.90;;;;;;5114945;28;20391;-70
2021/06/16 03:51:34;;;;;;;7.20;5.57;;;16.90;99.90;;;;;;5113826;28;20896;-70
2021/06/16 03:54:01;;;;;;;5.97;5.37;;;16.80;99.90;;;;;;5114830;28;20393;-70
2021/06/16 03:56:27;;;;;;;7.17;5.90;;;16.80;99.90;;;;;;5114755;28;20396;-70
2021/06/16 03:58:53;;;;;;;9.60;6.20;;;16.80;99.90;;;;;;5113718;28;20445;-70
2021/06/16 04:01:19;;;;;;;7.27;5.83;;;16.80;99.90;;;;;;5114695;28;20399;-70
2021/06/16 04:03:45;;;;;;;8.87;6.10;;;16.80;99.90;;;;;;5114722;28;20731;-70
2021/06/16 04:06:13;;;;;;;6.07;5.27;;;16.80;99.90;;;;;;5114497;28;20183;-70
2021/06/16 04:08:44;;;;;;;7.10;5.60;;;16.80;99.90;;;;;;5114712;28;20399;-70
2021/06/16 04:11:12;;;;;;;6.23;5.40;;;16.90;99.90;;;;;;5114452;28;20391;-70
2021/06/16 04:13:38;;;;;;;5.83;5.17;;;16.90;99.90;;;;;;5114337;28;20734;-70
2021/06/16 04:16:04;;;;;;;7.63;5.30;;;16.90;99.90;;;;;;5114131;28;20554;-70
2021/06/16 04:18:30;;;;;;;7.23;4.60;;;16.90;99.90;;;;;;5114429;28;20220;-70
2021/06/16 04:20:56;;;;;;;6.93;5.90;;;17.00;99.90;;;;;;5114485;28;20393;-70
2021/06/16 04:23:21;;;;;;;10.17;5.50;;;17.00;99.90;;;;;;5113418;28;20757;-70
2021/06/16 04:25:47;;;;;;;7.60;6.13;;;17.00;99.90;;;;;;5111865;28;20162;-69
2021/06/16 04:28:12;;;;;;;9.97;5.20;;;17.10;99.90;;;;;;5118626;27;20201;-69
2021/06/16 04:30:38;;;;;;;5.70;4.77;;;17.10;99.90;;;;;;5105143;28;20171;-69
2021/06/16 04:33:04;;;;;;;8.23;5.03;;;17.10;99.90;;;;;;5113683;28;20255;-69
2021/06/16 04:35:29;;;;;;;7.10;5.50;;;17.10;99.90;;;;;;5112013;28;20161;-69
2021/06/16 04:37:55;;;;;;;7.73;5.17;;;17.10;99.90;;;;;;5101658;28;20425;-69
2021/06/16 04:40:21;;;;;;;6.30;5.60;;;17.20;99.90;;;;;;5103331;28;20185;-69
2021/06/16 04:42:46;;;;;;;8.83;5.67;;;17.20;99.90;;;;;;5109310;28;20185;-69
2021/06/16 04:45:12;;;;;;;6.20;5.37;;;17.20;99.90;;;;;;5103948;28;20166;-69
2021/06/16 04:47:38;;;;;;;8.47;5.67;;;17.30;99.90;;;;;;5107334;28;20289;-69
2021/06/16 04:50:06;;;;;;;10.03;5.87;;;17.30;99.90;;;;;;5095784;28;20490;-69
2021/06/16 04:52:32;;;;;;;10.63;6.43;;;17.30;99.90;;;;;;5091280;28;20186;-69
2021/06/16 04:54:57;;;;;;;8.40;6.33;;;17.40;99.90;;;;;;5091829;28;20429;-69
2021/06/16 04:57:26;;;;;;;7.20;6.23;;;17.50;99.90;;;;;;5091936;28;20599;-69
2021/06/16 04:59:51;;;;;;;10.57;6.30;;;17.50;99.90;;;;;;5097093;28;20562;-69
2021/06/16 05:02:17;;;;;;;8.97;6.70;;;17.60;99.90;;;;;;5099191;28;20510;-69
2021/06/16 05:04:43;;;;;;;19.90;8.50;;;17.60;99.90;;;;;;5101267;28;20174;-69
2021/06/16 05:07:08;;;;;;;9.00;6.43;;;17.70;99.90;;;;;;5104897;28;20199;-69
2021/06/16 05:09:34;;;;;;;9.23;7.30;;;17.80;99.90;;;;;;5093448;28;20522;-69
2021/06/16 05:12:00;;;;;;;10.03;6.73;;;17.90;99.90;;;;;;5093123;28;20205;-69
2021/06/16 05:14:25;;;;;;;10.30;6.93;;;18.00;99.90;;;;;;5093261;28;20177;-69
2021/06/16 05:16:53;;;;;;;7.97;7.17;;;18.20;99.90;;;;;;5092963;28;20247;-69
2021/06/16 05:19:21;;;;;;;7.63;6.50;;;18.30;99.90;;;;;;5105682;28;20182;-69
2021/06/16 05:21:47;;;;;;;7.50;6.63;;;18.30;99.90;;;;;;5111911;28;20900;-69
2021/06/16 05:24:13;;;;;;;7.67;6.83;;;18.40;99.90;;;;;;5093066;28;20405;-69
2021/06/16 05:26:39;;;;;;;7.30;6.70;;;18.40;99.90;;;;;;5092140;28;20679;-69
2021/06/16 05:29:07;;;;;;;8.90;6.70;;;18.50;99.90;;;;;;5102903;28;20435;-69
2021/06/16 05:31:33;;;;;;;6.80;6.20;;;18.60;99.90;;;;;;5106152;28;20909;-69
2021/06/16 05:33:58;;;;;;;7.57;6.87;;;18.60;99.90;;;;;;5093289;28;20394;-69
2021/06/16 05:36:25;;;;;;;10.07;7.30;;;18.70;99.90;;;;;;5101372;28;20977;-69
2021/06/16 05:38:50;;;;;;;9.93;7.20;;;18.70;99.90;;;;;;5103720;28;20178;-69
2021/06/16 05:41:18;;;;;;;7.97;6.53;;;18.80;99.90;;;;;;5113443;28;20456;-69
2021/06/16 05:43:44;;;;;;;8.80;7.03;;;18.90;99.90;;;;;;5110829;28;20851;-69
2021/06/16 05:46:11;;;;;;;10.03;7.23;;;19.10;99.90;;;;;;5113089;28;20995;-69
2021/06/16 05:48:37;;;;;;;7.73;7.03;;;19.20;99.90;;;;;;5113775;28;20161;-69
2021/06/16 05:51:05;;;;;;;10.10;6.80;;;19.30;99.90;;;;;;5113371;28;20407;-69
2021/06/16 05:53:31;;;;;;;12.40;7.60;;;19.40;99.90;;;;;;5111772;28;20396;-69
2021/06/16 05:55:57;;;;;;;10.67;8.03;;;19.50;99.90;;;;;;5104293;28;20507;-69
2021/06/16 05:58:23;;;;;;;10.17;7.20;;;19.60;99.90;;;;;;5112959;28;20480;-69
2021/06/16 06:00:48;;;;;;;15.47;7.70;;;19.60;99.90;;;;;;5113609;28;20178;-69
2021/06/16 06:03:14;;;;;;;7.83;7.03;;;19.70;99.90;;;;;;5113593;28;20176;-69
2021/06/16 06:05:40;;;;;;;8.13;7.13;;;19.70;99.90;;;;;;5112787;28;20172;-69
2021/06/16 06:08:07;;;;;;;11.33;7.07;;;19.80;99.90;;;;;;5112829;28;20182;-69
2021/06/16 06:10:32;;;;;;;11.53;7.30;;;19.80;99.90;;;;;;5108924;28;20178;-69
2021/06/16 06:12:58;;;;;;;7.07;6.37;;;19.90;99.90;;;;;;5100396;28;20434;-69
2021/06/16 06:15:23;;;;;;;10.60;7.77;;;20.00;99.90;;;;;;5101792;28;20241;-69
2021/06/16 06:17:50;;;;;;;8.43;7.63;;;20.00;99.90;;;;;;5108524;28;20669;-69
2021/06/16 06:20:16;;;;;;;7.23;6.50;;;20.10;99.90;;;;;;5108959;28;20170;-70
2021/06/16 06:22:42;;;;;;;9.33;7.87;;;20.20;99.90;;;;;;5115434;28;20411;-69
2021/06/16 06:25:09;;;;;;;7.57;6.87;;;20.20;99.90;;;;;;5114768;28;20864;-69
2021/06/16 06:27:35;;;;;;;9.17;7.60;;;20.30;99.90;;;;;;5096299;28;20209;-69
2021/06/16 06:30:00;;;;;;;8.37;7.67;;;20.40;99.90;;;;;;5098176;28;20812;-69
2021/06/16 06:32:26;;;;;;;8.57;7.67;;;20.50;99.90;;;;;;5100303;28;20305;-69
2021/06/16 06:34:51;;;;;;;7.90;7.07;;;20.50;99.90;;;;;;5100990;27;20583;-69
2021/06/16 06:37:19;;;;;;;9.17;6.70;;;20.60;99.90;;;;;;5097146;27;20171;-69
2021/06/16 06:39:45;;;;;;;9.20;7.30;;;20.70;99.90;;;;;;5110596;28;21036;-69
2021/06/16 06:42:10;;;;;;;8.10;6.70;;;20.90;99.90;;;;;;5100783;27;20436;-69
2021/06/16 06:44:36;;;;;;;11.50;7.00;;;21.00;99.90;;;;;;5104277;28;20244;-69
2021/06/16 06:47:01;;;;;;;7.80;7.00;;;21.30;99.90;;;;;;5102090;28;20197;-69
2021/06/16 06:49:27;;;;;;;8.10;6.50;;;21.40;99.90;;;;;;5099737;28;20162;-69
2021/06/16 06:51:52;;;;;;;7.53;6.47;;;21.60;99.90;;;;;;5110855;28;20249;-69
2021/06/16 06:54:18;;;;;;;7.63;6.30;;;21.70;99.90;;;;;;5113617;28;20151;-69
2021/06/16 06:56:44;;;;;;;10.40;6.73;;;21.80;99.90;;;;;;5103171;28;20174;-69
2021/06/16 06:59:09;;;;;;;9.40;6.90;;;21.90;99.90;;;;;;5105389;27;20618;-69
2021/06/16 07:01:35;;;;;;;9.20;6.80;;;22.00;99.90;;;;;;5097876;28;20219;-69
2021/06/16 07:04:01;;;;;;;7.53;6.73;;;22.20;99.90;;;;;;5093693;28;20540;-69
2021/06/16 07:06:29;;;;;;;8.13;6.60;;;22.30;99.90;;;;;;5093703;28;20559;-69
2021/06/16 07:08:55;;;;;;;7.67;6.60;;;22.40;99.90;;;;;;5102999;28;20400;-69
2021/06/16 07:11:21;;;;;;;8.90;7.03;;;22.60;99.90;;;;;;5103505;28;20431;-69
2021/06/16 07:13:46;;;;;;;9.37;6.67;;;22.70;99.90;;;;;;5101150;28;20703;-69
2021/06/16 07:16:12;;;;;;;6.53;5.90;;;22.80;99.90;;;;;;5100783;28;20524;-69
2021/06/16 07:18:37;;;;;;;7.53;6.30;;;23.00;99.90;;;;;;5108453;28;20196;-69
2021/06/16 07:21:04;;;;;;;10.80;6.40;;;23.20;99.90;;;;;;5107466;28;20215;-69
2021/06/16 07:23:29;;;;;;;8.97;7.00;;;23.50;99.90;;;;;;5099500;28;20201;-69
2021/06/16 07:25:55;;;;;;;7.50;5.73;;;23.80;99.90;;;;;;5104814;28;20431;-69
2021/06/16 07:28:20;;;;;;;6.57;5.97;;;24.40;99.90;;;;;;5103357;28;20202;-69
2021/06/16 07:30:46;;;;;;;6.67;5.20;;;25.00;98.60;;;;;;5104691;28;20254;-70
2021/06/16 07:33:12;;;;;;;11.70;5.80;;;25.80;97.30;;;;;;5102282;28;20214;-70
2021/06/16 07:35:37;;;;;;;7.30;5.07;;;26.60;95.50;;;;;;5102360;28;20185;-70
2021/06/16 07:38:03;;;;;;;7.63;5.47;;;27.40;93.00;;;;;;5101798;27;20559;-70
2021/06/16 07:40:29;;;;;;;6.67;5.83;;;28.20;90.70;;;;;;5102613;28;20212;-70
2021/06/16 07:42:54;;;;;;;5.23;4.83;;;29.00;85.00;;;;;;5108150;28;20223;-70
2021/06/16 07:45:20;;;;;;;7.60;5.00;;;29.70;79.70;;;;;;5094721;28;20208;-71
2021/06/16 07:47:46;;;;;;;5.50;4.73;;;30.30;74.60;;;;;;5102333;28;20281;-71
2021/06/16 07:50:12;;;;;;;4.90;4.40;;;30.80;69.90;;;;;;5106046;28;20208;-71
2021/06/16 07:52:38;;;;;;;6.37;4.63;;;31.20;67.20;;;;;;5101122;28;20169;-71
2021/06/16 07:55:05;;;;;;;5.93;5.00;;;31.80;63.10;;;;;;5100560;28;20413;-71
2021/06/16 07:57:31;;;;;;;5.53;5.13;;;32.40;59.00;;;;;;5104249;28;20296;-71
2021/06/16 07:59:57;;;;;;;5.13;4.60;;;32.90;56.80;;;;;;5104593;28;20538;-71
2021/06/16 08:02:22;;;;;;;8.40;4.97;;;33.50;54.40;;;;;;5104071;28;20174;-71
2021/06/16 08:04:48;;;;;;;5.57;5.07;;;34.10;52.80;;;;;;5101679;28;20177;-71
2021/06/16 08:07:14;;;;;;;5.40;4.90;;;34.30;50.70;;;;;;5101737;28;20238;-71
2021/06/16 08:09:42;;;;;;;5.57;4.87;;;34.50;50.20;;;;;;5103175;28;20163;-71
2021/06/16 08:12:09;;;;;;;8.47;5.07;;;34.80;49.10;;;;;;5104297;28;20170;-71
2021/06/16 08:14:36;;;;;;;7.97;5.40;;;35.20;47.80;;;;;;5102534;28;20877;-71
2021/06/16 08:17:01;;;;;;;5.60;5.00;;;35.90;47.10;;;;;;5102651;28;20400;-71
2021/06/16 08:19:27;;;;;;;5.67;5.10;;;36.70;45.10;;;;;;5100263;28;20911;-71
2021/06/16 08:21:53;;;;;;;4.87;4.17;;;37.40;43.30;;;;;;5104799;28;20174;-72
2021/06/16 08:24:19;;;;;;;6.70;4.40;;;38.10;41.50;;;;;;5112485;28;20264;-72
2021/06/16 08:26:47;;;;;;;6.63;4.37;;;39.10;40.30;;;;;;5099933;28;20547;-72
2021/06/16 08:29:13;;;;;;;4.33;3.93;;;39.60;39.00;;;;;;5094290;28;20272;-72
2021/06/16 08:31:38;;;;;;;5.20;4.80;;;40.30;37.60;;;;;;5099618;28;20510;-72
2021/06/16 08:34:04;;;;;;;4.57;4.17;;;41.10;36.10;;;;;;5099953;27;20694;-72
2021/06/16 08:36:30;;;;;;;4.77;4.37;;;41.60;35.60;;;;;;5104505;27;20174;-72
2021/06/16 08:38:55;;;;;;;4.70;4.27;;;42.00;33.70;;;;;;5107022;28;20166;-70
2021/06/16 08:41:21;;;;;;;4.97;4.27;;;42.60;32.70;;;;;;5101064;28;20169;-71
2021/06/16 08:43:47;;;;;;;4.60;4.27;;;42.90;32.30;;;;;;5111797;28;20237;-70
2021/06/16 08:46:14;;;;;;;5.10;4.38;;;43.30;31.40;;;;;;5103725;27;20172;-70
2021/06/16 08:48:42;;;;;;;5.88;4.43;;;43.70;30.40;;;;;;5101324;27;20205;-70
2021/06/16 08:51:15;;;;;;;4.13;3.75;;;43.70;29.70;;;;;;5103975;28;20603;-70
2021/06/16 08:53:42;;;;;;;3.95;3.65;;;43.60;31.00;;;;;;5101045;28;20215;-70
2021/06/16 08:56:08;;;;;;;4.38;3.70;;;44.00;30.40;;;;;;5106461;27;20166;-70
2021/06/16 08:58:36;;;;;;;4.90;4.43;;;44.20;30.10;;;;;;5102602;27;20742;-70
2021/06/16 09:01:04;;;;;;;3.88;3.58;;;44.50;29.50;;;;;;5097902;28;20206;-70
2021/06/16 09:03:30;;;;;;;5.90;3.35;;;44.50;29.80;;;;;;5110678;27;20176;-70
2021/06/16 09:06:09;;;;;;;4.97;3.53;;;44.60;29.40;;;;;;5114869;27;20271;-71
2021/06/16 09:14:13;;;;;;;3.78;3.47;;;44.80;28.50;;;;;;5138197;27;20327;-72
2021/06/16 09:16:39;;;;;;;6.38;3.47;;;43.80;29.80;;;;;;5128433;28;20262;-73
2021/06/16 09:19:20;;;;;;;6.35;3.70;;;44.00;29.40;;;;;;5138174;27;20191;-72
2021/06/16 09:21:47;;;;;;;8.20;3.67;;;44.30;29.10;;;;;;5128395;27;20191;-72
2021/06/16 09:24:13;;;;;;;4.00;3.75;;;43.60;29.00;;;;;;5118634;27;20631;-70
2021/06/16 09:26:41;;;;;;;5.07;4.53;;;43.70;29.40;;;;;;5114739;27;20440;-71
2021/06/16 09:29:07;;;;;;;5.30;3.92;;;43.60;29.80;;;;;;5123549;27;20656;-71
2021/06/16 09:31:37;;;;;;;4.70;4.07;;;43.10;29.50;;;;;;5122274;27;20181;-71
2021/06/16 09:34:08;;;;;;;5.25;3.50;;;42.70;30.90;;;;;;5118219;27;20663;-71
2021/06/16 09:36:53;;;;;;;4.55;4.15;;;42.60;31.10;;;;;;5114703;27;20534;-71
2021/06/16 09:39:23;;;;;;;3.88;3.60;;;42.10;30.80;;;;;;5120030;27;20622;-71
2021/06/16 09:41:58;;;;;;;5.05;4.55;;;41.20;33.00;;;;;;5116959;28;20169;-71
2021/06/16 09:44:46;;;;;;;4.22;3.72;;;40.90;33.20;;;;;;5123504;27;20632;-71
2021/06/16 09:50:06;;;;;;;6.05;4.32;;;40.60;33.80;;;;;;5109811;27;20296;-71
2021/06/16 09:58:09;;;;;;;3.78;3.47;;;40.20;34.00;;;;;;5142202;27;20338;-71
2021/06/16 10:00:38;;;;;;;5.05;4.28;;;39.00;35.40;;;;;;5086563;28;20174;-71
2021/06/16 10:03:07;;;;;;;4.55;4.15;;;38.60;34.90;;;;;;5087358;28;20193;-71
2021/06/16 10:05:33;;;;;;;4.70;3.70;;;37.60;36.10;;;;;;5087591;28;20177;-71
2021/06/16 10:07:59;;;;;;;4.87;4.37;;;37.50;38.00;;;;;;5092009;28;20174;-71
2021/06/16 10:10:25;;;;;;;3.90;3.20;;;37.40;38.60;;;;;;5089040;28;20162;-71
2021/06/16 10:12:52;;;;;;;5.23;3.40;;;37.40;38.70;;;;;;5091068;28;20173;-71
2021/06/16 10:15:20;;;;;;;4.63;4.23;;;37.40;37.70;;;;;;5088489;28;20424;-71
2021/06/16 10:17:47;;;;;;;5.07;4.00;;;37.10;38.00;;;;;;5089789;28;20457;-71
2021/06/16 10:20:14;;;;;;;4.40;4.00;;;37.00;37.70;;;;;;5087458;28;20863;-71
2021/06/16 10:22:40;;;;;;;5.20;3.93;;;36.70;38.20;;;;;;5088984;28;20447;-71
2021/06/16 10:25:07;;;;;;;3.93;3.30;;;36.40;38.80;;;;;;5093866;28;20429;-71
2021/06/16 10:27:40;;;;;;;5.80;3.90;;;36.20;39.30;;;;;;5083981;28;20508;-71
2021/06/16 10:30:10;;;;;;;5.37;4.87;;;35.90;39.20;;;;;;5087216;28;20413;-71
2021/06/16 10:32:42;;;;;;;5.73;4.80;;;35.70;39.90;;;;;;5083744;28;20803;-71
2021/06/16 10:35:11;;;;;;;3.67;3.37;;;35.40;40.30;;;;;;5089304;28;20405;-71
2021/06/16 10:45:46;;;;;;;8.40;4.23;;;35.10;41.10;;;;;;5138250;27;20331;-71
2021/06/16 10:48:12;;;;;;;5.50;5.00;;;33.90;42.80;;;;;;5110236;28;20416;-71
2021/06/16 10:53:29;;;;;;;5.47;4.97;;;33.50;43.00;;;;;;5139695;27;20308;-71
2021/06/16 10:58:33;;;;;;;6.03;5.50;;;32.80;44.70;;;;;;5132531;27;20307;-70
2021/06/16 11:01:19;;;;;;;5.53;4.93;;;32.00;46.50;;;;;;5102426;28;22124;-70
2021/06/16 11:06:38;;;;;;;3.30;3.00;;;31.70;46.40;;;;;;5133243;27;20771;-71
2021/06/16 11:25:28;;;;;;;3.00;2.80;;;31.10;47.10;;;;;;5128820;27;20299;-70
2021/06/16 11:33:34;;;;;;;3.60;3.30;;;30.30;48.80;;;;;;5140938;27;20347;-71
2021/06/16 11:36:03;;;;;;;6.47;5.00;;;30.20;48.30;;;;;;5115139;28;20893;-70
2021/06/16 11:54:28;;;;;;;6.03;4.60;;;29.60;50.70;;;;;;5122156;27;20628;-71
2021/06/16 11:57:05;;;;;;;5.37;4.73;;;29.60;50.60;;;;;;5084563;28;20483;-71
2021/06/16 12:07:40;;;;;;;4.73;4.33;;;29.50;51.00;;;;;;5123992;27;20290;-71
2021/06/16 12:12:51;;;;;;;4.00;3.67;;;29.40;50.30;;;;;;5139837;27;20298;-70
2021/06/16 12:15:22;;;;;;;3.03;2.80;;;29.40;50.10;;;;;;5099302;28;20534;-71
2021/06/16 12:28:43;;;;;;;5.90;3.00;;;29.10;50.30;;;;;;5126148;27;20339;-71
2021/06/16 12:31:14;;;;;;;2.37;2.27;;;29.00;51.00;;;;;;5110342;28;20483;-71
2021/06/16 12:33:47;;;;;;;3.10;2.90;;;28.90;48.80;;;;;;5097090;28;20425;-71
2021/06/16 12:36:19;;;;;;;3.70;3.40;;;28.90;49.90;;;;;;5091988;28;20409;-71
2021/06/16 12:38:54;;;;;;;3.97;3.57;;;28.80;50.90;;;;;;5088412;28;20810;-71
2021/06/16 12:41:39;;;;;;;3.77;3.37;;;28.80;50.50;;;;;;5096048;28;20423;-71
2021/06/16 12:47:00;;;;;;;3.93;3.00;;;28.80;51.90;;;;;;5124324;27;20327;-71
2021/06/16 12:52:06;;;;;;;4.10;2.20;;;28.70;51.30;;;;;;5135514;27;20342;-70
2021/06/16 12:59:51;;;;;;;4.53;4.13;;;28.70;49.60;;;;;;5132105;27;20344;-70
2021/06/16 13:02:35;;;;;;;3.20;2.90;;;28.60;52.30;;;;;;5099870;28;20503;-70
2021/06/16 13:07:53;;;;;;;4.07;3.67;;;28.50;52.60;;;;;;5126410;27;20302;-71
2021/06/16 13:20:56;;;;;;;3.97;3.63;;;28.30;52.20;;;;;;5124289;27;20288;-71
2021/06/16 13:23:33;;;;;;;3.50;3.20;;;28.40;53.40;;;;;;5092064;28;20424;-71
2021/06/16 13:26:06;;;;;;;3.10;2.90;;;28.30;52.20;;;;;;5094966;28;20413;-71
2021/06/16 13:28:35;;;;;;;3.23;2.70;;;28.30;54.00;;;;;;5111972;28;20407;-71
2021/06/16 13:31:02;;;;;;;3.03;2.80;;;28.20;53.60;;;;;;5102478;28;20420;-71
2021/06/16 13:33:31;;;;;;;4.47;4.10;;;28.20;51.80;;;;;;5096603;28;20421;-71
2021/06/16 13:35:58;;;;;;;2.70;2.50;;;28.20;53.60;;;;;;5087757;28;20876;-71
2021/06/16 13:38:23;;;;;;;3.70;2.93;;;28.30;53.10;;;;;;5105271;28;20415;-71
2021/06/16 13:40:52;;;;;;;3.37;3.07;;;28.40;52.10;;;;;;5084431;28;20757;-71
2021/06/16 13:43:17;;;;;;;7.33;6.70;;;28.40;51.90;;;;;;5101983;28;20167;-71
2021/06/16 13:45:43;;;;;;;5.83;5.43;;;28.50;53.00;;;;;;5109946;28;20479;-71
2021/06/16 13:48:08;;;;;;;5.93;5.40;;;28.60;53.20;;;;;;5111688;28;20170;-71
2021/06/16 13:50:34;;;;;;;5.80;4.37;;;28.60;52.70;;;;;;5109967;28;20186;-71
2021/06/16 13:53:00;;;;;;;3.17;2.90;;;28.60;52.30;;;;;;5098796;28;20198;-71
2021/06/16 13:55:25;;;;;;;4.03;2.77;;;28.60;52.20;;;;;;5090075;28;20160;-71
2021/06/16 13:57:51;;;;;;;3.13;2.90;;;28.50;50.90;;;;;;5091079;28;20553;-71
2021/06/16 14:00:17;;;;;;;3.90;3.60;;;28.60;51.80;;;;;;5123868;28;20540;-71
2021/06/16 14:02:44;;;;;;;5.53;2.73;;;28.50;52.00;;;;;;5109017;27;20170;-71
2021/06/16 14:05:10;;;;;;;4.47;4.07;;;28.50;51.30;;;;;;5110567;28;20963;-71
2021/06/16 14:07:37;;;;;;;4.23;3.90;;;28.50;52.20;;;;;;5124378;28;20423;-71
2021/06/16 14:10:04;;;;;;;4.97;4.57;;;28.60;52.00;;;;;;5093468;28;20425;-71
2021/06/16 14:12:29;;;;;;;5.83;4.60;;;28.70;51.80;;;;;;5098499;28;20475;-71
2021/06/16 14:14:55;;;;;;;4.13;3.83;;;28.70;51.60;;;;;;5089458;28;20393;-71
2021/06/16 14:17:21;;;;;;;4.13;3.67;;;28.90;50.80;;;;;;5094685;28;20174;-71
2021/06/16 14:19:46;;;;;;;4.43;3.47;;;29.00;50.70;;;;;;5089507;28;20214;-71
2021/06/16 14:22:13;;;;;;;2.23;2.10;;;29.00;50.40;;;;;;5104616;28;20167;-71
2021/06/16 14:24:39;;;;;;;4.20;3.90;;;29.00;49.70;;;;;;5100478;28;20186;-71
2021/06/16 14:27:05;;;;;;;4.90;4.40;;;29.00;49.90;;;;;;5104980;28;20416;-71
2021/06/16 14:29:30;;;;;;;5.07;4.27;;;28.90;50.20;;;;;;5102704;28;20182;-71
2021/06/16 14:31:56;;;;;;;4.13;3.83;;;28.90;49.70;;;;;;5096645;28;20425;-71
2021/06/16 14:34:21;;;;;;;3.53;3.23;;;28.80;50.90;;;;;;5095207;28;20182;-71
2021/06/16 14:36:47;;;;;;;3.93;3.53;;;28.70;50.40;;;;;;5092716;28;20198;-71
2021/06/16 14:39:14;;;;;;;3.40;3.10;;;28.70;50.70;;;;;;5095725;28;20194;-71
2021/06/16 14:41:41;;;;;;;3.00;2.80;;;28.60;51.40;;;;;;5086679;28;20160;-71
2021/06/16 14:44:07;;;;;;;3.53;3.23;;;28.50;50.80;;;;;;5093229;28;20481;-71
2021/06/16 14:46:32;;;;;;;4.27;3.87;;;28.50;50.90;;;;;;5096293;28;20397;-71